createdAt,value
2019-04-10T00:03:48.340Z,53.30
2019-04-10T00:08:54.728Z,53.10
2019-04-10T00:14:00.816Z,55.97
2019-04-10T00:19:06.717Z,54.05
2019-04-10T00:24:13.538Z,52.57
2019-04-10T00:34:26.577Z,54.03
2019-04-10T00:39:32.857Z,52.00
2019-04-10T00:44:39.643Z,51.83
2019-04-10T00:49:46.157Z,50.52
2019-04-10T00:59:58.875Z,52.23
2019-04-10T01:05:15.322Z,52.63
2019-04-10T01:10:22.026Z,52.33
2019-04-10T01:15:28.847Z,50.70
2019-04-10T01:20:34.788Z,55.17
2019-04-10T01:25:40.916Z,50.93
2019-04-10T01:35:52.779Z,50.93
2019-04-10T01:40:57.994Z,53.03
2019-04-10T01:46:04.207Z,54.97
2019-04-10T01:51:10.817Z,54.40
2019-04-10T01:56:24.943Z,52.93
2019-04-10T02:11:38.014Z,54.67
2019-04-10T02:16:45.177Z,59.17
2019-04-10T02:21:51.837Z,55.03
2019-04-10T02:32:04.289Z,57.37
2019-04-10T02:42:18.439Z,56.90
2019-04-10T02:52:30.789Z,53.30
2019-04-10T02:57:38.875Z,56.83
2019-04-10T03:02:45.292Z,54.37
2019-04-10T03:12:58.901Z,60.30
2019-04-10T03:23:13.464Z,58.53
2019-04-10T03:28:19.586Z,60.40
2019-04-10T03:33:37.172Z,60.53
2019-04-10T03:43:48.859Z,56.03
2019-04-10T03:48:55.622Z,60.00
2019-04-10T03:54:02.622Z,60.97
2019-04-10T03:59:08.615Z,60.98
2019-04-10T04:04:15.454Z,57.23
2019-04-10T04:09:21.734Z,64.40
2019-04-10T04:14:28.478Z,59.07
2019-04-10T04:19:34.647Z,60.45
2019-04-10T04:34:54.199Z,61.00
2019-04-10T04:45:06.458Z,62.43
2019-04-10T04:50:12.724Z,63.40
2019-04-10T04:55:19.703Z,63.37
2019-04-10T05:05:31.768Z,65.50
2019-04-10T05:10:37.852Z,64.82
2019-04-10T05:25:59.026Z,63.67
2019-04-10T05:31:05.034Z,59.03
2019-04-10T05:36:10.661Z,58.60
2019-04-10T05:41:17.501Z,64.13
2019-04-10T05:46:23.520Z,63.83
2019-04-10T05:51:30.907Z,62.23
2019-04-10T05:56:36.422Z,62.10
2019-04-10T06:01:43.212Z,63.40
2019-04-10T06:06:50.284Z,62.30
2019-04-10T06:11:57.306Z,63.20
2019-04-10T06:17:04.315Z,65.43
2019-04-10T06:27:18.411Z,66.27
2019-04-10T06:32:25.485Z,66.57
2019-04-10T06:42:46.536Z,69.05
2019-04-10T06:52:53.005Z,62.13
2019-04-10T06:57:59.337Z,63.10
2019-04-10T07:03:06.549Z,61.93
2019-04-10T07:08:26.028Z,63.15
2019-04-10T07:13:32.286Z,64.43
2019-04-10T07:18:40.132Z,63.53
2019-04-10T07:28:53.361Z,62.17
2019-04-10T07:34:01.408Z,63.60
2019-04-10T07:39:07.745Z,504.60
2019-04-10T07:44:13.936Z,704.67
2019-04-10T07:49:22.111Z,482.77
2019-04-10T08:04:41.505Z,129.93
2019-04-10T08:09:47.670Z,99.80
2019-04-10T08:14:54.039Z,83.07
2019-04-10T08:25:06.529Z,71.28
2019-04-10T08:30:12.490Z,73.00
2019-04-10T08:35:18.835Z,68.83
2019-04-10T08:40:24.739Z,66.63
2019-04-10T08:45:40.550Z,60.07
2019-04-10T08:50:38.612Z,61.40
2019-04-10T08:55:44.593Z,59.20
2019-04-10T09:00:52.573Z,57.60
2019-04-10T09:05:58.754Z,58.23
2019-04-10T09:11:04.991Z,57.07
2019-04-10T09:16:12.144Z,56.47
2019-04-10T09:21:18.049Z,59.67
2019-04-10T09:26:24.489Z,58.50
2019-04-10T09:31:31.524Z,58.45
2019-04-10T09:36:37.680Z,56.60
2019-04-10T09:41:43.919Z,57.83
2019-04-10T09:46:50.054Z,55.23
2019-04-10T09:51:56.498Z,57.53
2019-04-10T09:57:03.301Z,57.27
2019-04-10T10:02:09.784Z,59.33
2019-04-10T10:07:16.408Z,59.13
2019-04-10T10:17:30.695Z,54.77
2019-04-10T10:22:37.279Z,50.50
2019-04-10T10:27:43.318Z,52.90
2019-04-10T10:32:49.290Z,50.97
2019-04-10T10:37:55.289Z,50.47
2019-04-10T10:43:02.309Z,47.53
2019-04-10T10:48:09.102Z,50.60
2019-04-10T10:53:15.055Z,48.10
2019-04-10T10:58:21.821Z,50.57
2019-04-10T11:03:28.086Z,47.70
2019-04-10T11:08:35.504Z,47.30
2019-04-10T11:13:41.562Z,47.63
2019-04-10T11:18:48.476Z,48.53
2019-04-10T11:29:01.732Z,51.63
2019-04-10T11:34:08.582Z,50.10
2019-04-10T11:39:22.542Z,49.20
2019-04-10T11:44:22.994Z,53.27
2019-04-10T11:49:30.922Z,48.20
2019-04-10T11:54:40.960Z,42.90
2019-04-10T11:59:47.369Z,51.17
2019-04-10T12:15:07.953Z,50.63
2019-04-10T12:20:14.002Z,49.90
2019-04-10T12:25:20.868Z,50.87
2019-04-10T12:30:27.046Z,50.27
2019-04-10T12:35:33.972Z,45.30
2019-04-10T12:40:40.507Z,42.50
2019-04-10T12:45:46.626Z,41.87
2019-04-10T12:50:53.066Z,44.73
2019-04-10T12:55:59.795Z,42.83
2019-04-10T13:01:08.643Z,43.90
2019-04-10T13:06:15.600Z,44.93
2019-04-10T13:11:32.290Z,41.63
2019-04-10T13:16:38.401Z,46.57
2019-04-10T13:21:44.726Z,43.40
2019-04-10T13:31:59.310Z,39.05
2019-04-10T13:37:06.207Z,69.90
2019-04-10T13:42:12.768Z,262.17
2019-04-10T13:47:19.613Z,278.70
2019-04-10T13:52:29.566Z,493.45
2019-04-10T13:57:36.956Z,471.13
2019-04-10T14:02:43.139Z,347.40
2019-04-10T14:07:49.352Z,230.83
2019-04-10T14:12:57.956Z,169.47
2019-04-10T14:18:04.533Z,218.80
2019-04-10T14:23:13.278Z,198.30
2019-04-10T14:28:21.935Z,183.10
2019-04-10T14:33:28.308Z,147.37
2019-04-10T14:38:34.906Z,100.78
2019-04-10T14:43:43.014Z,67.08
2019-04-10T14:48:48.913Z,69.43
2019-04-10T14:53:55.380Z,63.40
2019-04-10T14:59:02.134Z,53.00
2019-04-10T15:04:08.810Z,45.83
2019-04-10T15:14:23.429Z,439.95
2019-04-10T15:19:29.694Z,164.50
2019-04-10T15:24:35.670Z,97.27
2019-04-10T15:29:41.539Z,64.57
2019-04-10T15:34:48.454Z,57.83
2019-04-10T15:39:54.601Z,162.07
2019-04-10T15:45:00.827Z,128.27
2019-04-10T15:50:08.468Z,69.83
2019-04-10T15:55:16.437Z,75.53
2019-04-10T16:00:23.291Z,155.07
2019-04-10T16:05:31.454Z,169.75
2019-04-10T16:10:43.274Z,256.33
2019-04-10T16:15:55.162Z,348.40
2019-04-10T16:26:11.137Z,359.27
2019-04-10T16:31:19.394Z,265.60
2019-04-10T16:36:26.501Z,363.80
2019-04-10T16:46:42.634Z,536.63
2019-04-10T16:51:50.402Z,693.97
2019-04-10T16:56:56.536Z,377.52
2019-04-10T17:02:03.722Z,175.50
2019-04-10T17:12:17.819Z,215.23
2019-04-10T17:17:24.261Z,121.77
2019-04-10T17:22:36.029Z,400.73
2019-04-10T17:27:39.949Z,514.17
2019-04-10T17:37:53.789Z,729.07
2019-04-10T17:48:07.269Z,394.65
2019-04-10T17:58:21.552Z,377.90
2019-04-10T18:03:39.702Z,385.60
2019-04-10T18:08:35.146Z,468.40
2019-04-10T18:13:42.906Z,517.50
2019-04-10T18:18:49.191Z,695.40
2019-04-10T18:23:55.768Z,388.03
2019-04-10T18:29:02.442Z,226.27
2019-04-10T18:34:10.984Z,403.03
2019-04-10T18:44:24.768Z,707.55
2019-04-10T18:49:33.721Z,613.20
2019-04-10T18:54:39.930Z,437.03
2019-04-10T18:59:55.209Z,480.83
2019-04-10T19:10:17.768Z,586.17
2019-04-10T19:15:44.671Z,428.92
2019-04-10T19:20:51.608Z,582.40
2019-04-10T19:25:58.789Z,697.70
2019-04-10T19:31:11.090Z,765.15
2019-04-10T19:36:15.269Z,707.45
2019-04-10T19:41:29.586Z,552.85
2019-04-10T19:46:29.877Z,333.27
2019-04-10T19:51:36.412Z,257.17
2019-04-10T19:56:42.720Z,437.05
2019-04-10T20:01:48.825Z,585.80
2019-04-10T20:06:56.368Z,620.23
2019-04-10T20:12:02.785Z,524.27
2019-04-10T20:17:08.753Z,446.50
2019-04-10T20:22:14.824Z,576.13
2019-04-10T20:37:34.518Z,765.03
2019-04-10T20:42:42.597Z,640.47
2019-04-10T20:52:55.840Z,679.30
2019-04-10T20:58:03.532Z,725.47
2019-04-10T21:08:15.830Z,316.57
2019-04-10T21:13:23.386Z,283.17
2019-04-10T21:18:29.751Z,400.23
2019-04-10T21:23:38.049Z,591.93
2019-04-10T21:28:43.819Z,649.77
2019-04-10T21:34:05.568Z,705.30
2019-04-10T21:39:12.359Z,519.80
2019-04-10T21:44:18.613Z,746.10
2019-04-10T21:49:24.604Z,662.87
2019-04-10T21:54:31.870Z,650.50
2019-04-10T21:59:38.898Z,827.53
2019-04-10T22:09:53.139Z,701.67
2019-04-10T22:15:00.203Z,760.40
2019-04-10T22:25:15.089Z,753.30
2019-04-10T22:35:27.877Z,774.70
2019-04-10T22:40:34.192Z,684.73
2019-04-10T22:45:40.405Z,891.20
2019-04-10T22:55:53.802Z,1056.63
2019-04-10T23:00:59.857Z,930.87
2019-04-10T23:11:11.500Z,679.30
2019-04-10T23:16:18.584Z,547.97
2019-04-10T23:21:24.883Z,395.00
2019-04-10T23:26:49.193Z,215.90
2019-04-10T23:31:58.279Z,134.23
2019-04-10T23:37:09.033Z,65.47
2019-04-10T23:42:15.024Z,39.97
2019-04-10T23:52:27.578Z,65.23
2019-04-10T23:57:34.079Z,263.70
